Time;durP1;ratioP1;P1;durP2;ratioP2;P2;SDS_P1;SDS_P2;PMS_P1;PMS_P2;Temp;Humidity;BMP_temperature;BMP_pressure;BME280_temperature;BME280_humidity;BME280_pressure;Samples;Min_cycle;Max_cycle;Signal;HPM_P1;HPM_P2
2022/12/18 00:01:25;;;;;;;14.57;8.27;;;;;;;-5.75;84.86;102550.22;5011841;28;20249;-76
2022/12/18 00:03:51;;;;;;;;;;;;;;;-5.59;84.52;102562.16;5012626;28;20037;-75
2022/12/18 00:06:17;;;;;;;12.25;6.95;;;;;;;-5.55;84.58;102562.97;5012352;28;19957;-73
2022/12/18 00:08:44;;;;;;;12.77;8.77;;;;;;;-5.45;84.41;102554.25;5012678;28;20061;-74
2022/12/18 00:11:22;;;;;;;12.18;8.50;;;;;;;-5.46;83.84;102545.59;5012474;28;20022;-74
2022/12/18 00:13:50;;;;;;;12.43;8.90;;;;;;;-5.44;83.35;102550.75;5013881;28;20125;-74
2022/12/18 00:16:20;;;;;;;11.63;7.18;;;;;;;-5.36;83.00;102559.31;5015703;28;20029;-72
2022/12/18 00:18:47;;;;;;;12.50;8.45;;;;;;;-5.29;82.59;102550.56;5015448;28;20080;-75
2022/12/18 00:21:14;;;;;;;13.00;8.32;;;;;;;-5.34;82.65;102536.78;4998854;28;20025;-75
2022/12/18 00:23:42;;;;;;;10.85;7.47;;;;;;;-5.29;82.67;102540.19;5016313;28;20116;-75
2022/12/18 00:26:12;;;;;;;10.32;7.05;;;;;;;-5.25;81.83;102535.81;5015286;28;20022;-75
2022/12/18 00:28:38;;;;;;;11.93;8.35;;;;;;;-5.22;82.47;102539.22;5014843;28;20054;-76
2022/12/18 00:31:09;;;;;;;11.27;8.50;;;;;;;-5.24;82.01;102545.31;5015851;28;20182;-74
2022/12/18 00:33:36;;;;;;;14.77;7.55;;;;;;;-5.27;81.88;102527.19;5015475;28;20112;-74
2022/12/18 00:36:08;;;;;;;10.88;7.30;;;;;;;-5.26;82.66;102534.94;5014982;28;20084;-74
2022/12/18 00:38:35;;;;;;;12.57;7.72;;;;;;;-5.34;82.25;102532.44;5015690;28;20038;-74
2022/12/18 00:41:00;;;;;;;11.82;7.20;;;;;;;-5.35;82.55;102535.94;5015121;28;20056;-76
2022/12/18 00:43:26;;;;;;;12.70;8.53;;;;;;;-5.38;82.59;102525.59;5015259;28;20113;-74
2022/12/18 00:45:52;;;;;;;10.33;7.73;;;;;;;-5.36;82.44;102523.81;5015582;28;20041;-75
2022/12/18 00:48:18;;;;;;;16.75;8.25;;;;;;;-5.46;82.11;102532.63;5015183;28;20026;-71
2022/12/18 00:50:43;;;;;;;13.50;8.63;;;;;;;-5.76;83.52;102523.41;5015352;28;20061;-74
2022/12/18 00:53:12;;;;;;;13.20;9.17;;;;;;;-5.89;84.24;102521.81;4997630;28;20339;-75
2022/12/18 00:55:39;;;;;;;12.88;8.63;;;;;;;-5.96;85.61;102521.03;5015661;28;20034;-74
2022/12/18 00:58:04;;;;;;;14.60;8.98;;;;;;;-6.03;85.76;102505.56;5015253;28;20475;-73
2022/12/18 01:00:30;;;;;;;13.20;8.77;;;;;;;-5.90;85.48;102530.50;5015125;28;20041;-74
2022/12/18 01:02:56;;;;;;;12.07;8.27;;;;;;;-5.84;85.65;102521.75;4997359;28;20030;-73
2022/12/18 01:05:21;;;;;;;14.00;8.67;;;;;;;-5.98;85.59;102521.94;5014716;28;20401;-73
2022/12/18 01:07:47;;;;;;;12.33;9.20;;;;;;;-5.90;85.81;102527.03;5014819;28;20032;-72
2022/12/18 01:10:13;;;;;;;14.03;9.57;;;;;;;-5.90;86.22;102519.25;5014620;28;20512;-74
2022/12/18 01:12:39;;;;;;;11.68;7.90;;;;;;;-5.78;85.68;102525.16;4980963;28;20030;-75
2022/12/18 01:15:06;;;;;;;12.07;8.97;;;;;;;-5.69;85.21;102508.63;5014649;28;20040;-75
2022/12/18 01:17:32;;;;;;;17.38;10.05;;;;;;;-5.58;85.51;102505.91;5014343;28;20026;-73
2022/12/18 01:19:57;;;;;;;13.27;10.07;;;;;;;-5.66;84.51;102500.81;5014363;28;20041;-74
2022/12/18 01:22:26;;;;;;;12.60;9.52;;;;;;;-5.63;84.49;102508.56;5014401;28;20044;-75
2022/12/18 01:24:51;;;;;;;12.97;8.87;;;;;;;-5.74;84.68;102500.91;5014263;28;20030;-74
2022/12/18 01:27:17;;;;;;;11.80;8.20;;;;;;;-5.87;85.16;102503.63;5014344;28;20080;-72
2022/12/18 01:29:44;;;;;;;13.67;9.43;;;;;;;-5.89;85.46;102500.22;5003173;28;20061;-72
2022/12/18 01:32:10;;;;;;;12.00;8.48;;;;;;;-6.03;85.41;102488.25;4995687;28;20382;-73
2022/12/18 01:34:37;;;;;;;11.13;8.63;;;;;;;-5.99;85.94;102502.06;4979486;28;20041;-75
2022/12/18 01:37:04;;;;;;;13.77;9.60;;;;;;;-5.96;86.49;102499.44;4997657;28;20057;-73
2022/12/18 01:39:29;;;;;;;12.85;8.48;;;;;;;-5.87;85.58;102511.41;4998342;28;20440;-73
2022/12/18 01:42:04;;;;;;;12.23;9.00;;;;;;;-5.87;86.26;102517.47;4997729;28;20061;-74
2022/12/18 01:44:55;;;;;;;11.85;8.77;;;;;;;-5.87;85.82;102519.19;5003713;28;20091;-73
2022/12/18 01:47:43;;;;;;;13.98;10.63;;;;;;;-5.91;86.15;102508.03;5005248;28;20556;-73
2022/12/18 01:50:15;;;;;;;13.82;9.57;;;;;;;-5.96;85.79;102509.81;5002891;28;20026;-73
2022/12/18 01:52:43;;;;;;;13.70;9.70;;;;;;;-5.91;86.18;102502.84;4995782;28;20026;-74
2022/12/18 01:55:11;;;;;;;12.60;8.88;;;;;;;-5.93;85.48;102512.38;4981920;28;20027;-73
2022/12/18 01:57:39;;;;;;;16.85;9.02;;;;;;;-5.79;85.90;102514.78;5016877;28;20018;-73
2022/12/18 02:00:11;;;;;;;13.10;9.77;;;;;;;-5.76;86.17;102501.81;5017302;28;20022;-74
2022/12/18 02:02:38;;;;;;;15.27;10.82;;;;;;;-5.73;86.57;102497.44;5000223;28;20030;-74
2022/12/18 02:05:04;;;;;;;17.48;10.00;;;;;;;-5.71;85.94;102500.00;4998164;28;20038;-73
2022/12/18 02:07:45;;;;;;;15.13;10.20;;;;;;;-5.68;85.59;102507.75;4994161;28;20030;-74
2022/12/18 02:10:42;;;;;;;13.55;10.07;;;;;;;-5.72;85.10;102503.47;4994085;28;20037;-73
2022/12/18 02:13:14;;;;;;;12.30;8.77;;;;;;;-5.78;85.35;102503.53;4956798;28;20478;-76
2022/12/18 02:16:23;;;;;;;15.63;9.20;;;;;;;-5.82;85.98;102509.63;4979353;28;20026;-74
2022/12/18 02:18:53;;;;;;;13.27;9.55;;;;;;;-5.98;85.78;102480.44;4997185;28;20032;-73
2022/12/18 02:21:28;;;;;;;12.48;8.88;;;;;;;-5.97;86.24;102495.97;5016940;28;20034;-71
2022/12/18 02:24:09;;;;;;;13.90;10.10;;;;;;;-6.02;86.84;102500.34;5016471;28;20033;-71
2022/12/18 02:26:46;;;;;;;15.20;9.88;;;;;;;-6.06;87.45;102488.28;5012689;28;20038;-71
2022/12/18 02:29:22;;;;;;;15.63;9.95;;;;;;;-6.01;87.27;102491.69;4988501;28;20046;-73
2022/12/18 02:31:57;;;;;;;14.68;10.65;;;;;;;-5.99;87.40;102474.38;5016312;28;20089;-76
2022/12/18 02:34:31;;;;;;;14.18;9.93;;;;;;;-5.77;87.39;102477.59;5013569;28;20029;-73
2022/12/18 02:36:58;;;;;;;14.20;9.60;;;;;;;-5.75;86.44;102478.44;5013138;28;20044;-73
2022/12/18 02:39:26;;;;;;;12.25;8.95;;;;;;;-5.78;86.21;102480.16;5013341;28;20198;-75
2022/12/18 02:41:52;;;;;;;13.95;9.52;;;;;;;-5.82;85.80;102481.09;5013003;28;20026;-75
2022/12/18 02:44:17;;;;;;;13.73;9.23;;;;;;;-5.84;86.95;102480.25;5013856;28;20030;-75
2022/12/18 02:46:51;;;;;;;17.27;10.57;;;;;;;-5.89;86.99;102471.69;4997855;28;20026;-74
2022/12/18 02:49:32;;;;;;;14.50;10.80;;;;;;;-5.94;86.87;102476.94;5015357;28;20040;-74
2022/12/18 02:52:16;;;;;;;14.57;10.65;;;;;;;-5.96;86.78;102478.69;5015236;28;20083;-73
2022/12/18 02:54:57;;;;;;;19.40;11.32;;;;;;;-5.89;87.21;102485.47;5015056;28;20033;-73
2022/12/18 02:57:33;;;;;;;17.15;10.52;;;;;;;-5.83;87.07;102489.75;5013390;28;20453;-74
2022/12/18 03:00:07;;;;;;;16.25;10.65;;;;;;;-5.88;87.27;102478.56;5012843;28;20454;-75
2022/12/18 03:02:53;;;;;;;15.80;9.93;;;;;;;-5.87;86.95;102488.06;4995302;28;20362;-73
2022/12/18 03:05:29;;;;;;;15.93;10.55;;;;;;;-5.87;86.67;102482.88;5012804;28;20028;-76
2022/12/18 03:08:05;;;;;;;17.77;12.20;;;;;;;-5.89;88.17;102480.28;4995502;28;20042;-74
2022/12/18 03:10:38;;;;;;;17.15;11.25;;;;;;;-5.74;86.60;102484.47;5013141;28;20373;-75
2022/12/18 03:13:16;;;;;;;15.23;9.68;;;;;;;-5.76;87.57;102487.09;5012894;28;20030;-76
2022/12/18 03:15:45;;;;;;;24.35;12.07;;;;;;;-5.80;86.75;102474.13;5012627;28;20029;-76
2022/12/18 03:18:18;;;;;;;17.13;10.35;;;;;;;-5.70;87.28;102481.81;5012747;28;20058;-75
2022/12/18 03:20:47;;;;;;;20.42;13.23;;;;;;;-5.48;87.06;102491.97;4994854;28;20038;-74
2022/12/18 03:23:17;;;;;;;20.73;11.63;;;;;;;-5.38;86.85;102486.63;5012674;28;20030;-73
2022/12/18 03:25:46;;;;;;;16.55;10.50;;;;;;;-5.34;85.80;102477.06;5012320;28;20046;-72
2022/12/18 03:28:20;;;;;;;19.77;11.85;;;;;;;-5.39;85.55;102487.50;5012725;28;20033;-74
2022/12/18 03:30:53;;;;;;;21.08;12.48;;;;;;;-5.41;86.47;102485.81;5012454;28;20057;-75
2022/12/18 03:33:25;;;;;;;19.20;12.18;;;;;;;-5.42;86.61;102490.16;5012220;28;20038;-76
2022/12/18 03:35:51;;;;;;;18.92;12.55;;;;;;;-5.34;86.75;102488.31;5011981;28;20377;-75
2022/12/18 03:38:16;;;;;;;21.27;14.00;;;;;;;-5.27;86.48;102480.44;5012350;28;20028;-73
2022/12/18 03:41:16;;;;;;;18.33;13.23;;;;;;;-5.21;86.81;102490.75;5012652;28;20049;-75
2022/12/18 03:44:14;;;;;;;22.13;14.68;;;;;;;-5.17;86.60;102482.06;5012491;28;20030;-73
2022/12/18 03:47:15;;;;;;;19.15;12.73;;;;;;;-5.12;85.98;102485.44;4987858;28;20412;-73
2022/12/18 03:49:56;;;;;;;20.73;13.85;;;;;;;-5.10;85.64;102492.34;5012371;28;20022;-73
2022/12/18 03:52:28;;;;;;;23.80;13.63;;;;;;;-5.04;85.32;102491.38;5015982;28;20037;-74
2022/12/18 03:54:57;;;;;;;21.85;14.60;;;;;;;-5.05;85.25;102487.06;5015929;28;20064;-73
2022/12/18 03:57:26;;;;;;;23.27;13.40;;;;;;;-5.17;84.60;102493.31;5016239;28;20030;-74
2022/12/18 03:59:57;;;;;;;23.17;13.55;;;;;;;-5.34;84.48;102488.31;5016183;28;20389;-74
2022/12/18 04:02:24;;;;;;;23.65;13.25;;;;;;;-5.34;84.87;102490.91;5015726;28;20037;-75
2022/12/18 04:04:53;;;;;;;20.70;14.00;;;;;;;-5.37;85.40;102485.75;5015927;28;20473;-73
2022/12/18 04:07:19;;;;;;;;;;;;;;;-5.31;85.81;102482.22;5016158;28;20022;-72
2022/12/18 04:09:46;;;;;;;20.23;13.15;;;;;;;-5.42;85.27;102471.13;5015856;28;19940;-73
2022/12/18 04:12:11;;;;;;;20.58;13.35;;;;;;;-5.47;85.28;102470.31;5015710;28;20038;-72
2022/12/18 04:14:37;;;;;;;24.97;13.57;;;;;;;-5.53;85.68;102458.25;5015640;28;20092;-73
2022/12/18 04:17:03;;;;;;;20.10;14.70;;;;;;;-5.47;85.15;102470.31;4998285;28;20528;-74
2022/12/18 04:19:29;;;;;;;17.00;12.25;;;;;;;-5.49;85.39;102454.75;4998258;28;20037;-72
2022/12/18 04:21:54;;;;;;;26.40;13.37;;;;;;;-5.51;85.79;102466.88;5015965;28;20030;-73
2022/12/18 04:24:20;;;;;;;18.30;12.53;;;;;;;-5.59;85.71;102468.72;5015681;28;20441;-74
2022/12/18 04:26:46;;;;;;;25.98;15.43;;;;;;;-5.63;85.43;102467.03;5015697;28;20130;-76
2022/12/18 04:29:12;;;;;;;22.47;13.33;;;;;;;-5.71;86.33;102442.91;5015691;28;20128;-74
2022/12/18 04:31:40;;;;;;;21.97;14.73;;;;;;;-5.52;86.35;102470.34;5015194;28;20038;-75
2022/12/18 04:34:06;;;;;;;23.80;14.85;;;;;;;-5.55;86.07;102479.91;5015222;28;20042;-72
2022/12/18 04:36:31;;;;;;;26.13;16.47;;;;;;;-5.54;86.67;102487.69;5015383;28;20060;-71
2022/12/18 04:38:57;;;;;;;24.17;13.87;;;;;;;-5.52;86.23;102492.84;5016954;28;20022;-75
2022/12/18 04:41:22;;;;;;;26.37;14.10;;;;;;;-5.48;86.03;102498.03;5014581;28;20085;-74
2022/12/18 04:43:48;;;;;;;26.50;15.47;;;;;;;-5.49;86.60;102483.31;5013760;28;20037;-73
2022/12/18 04:46:13;;;;;;;27.43;15.73;;;;;;;-5.46;86.20;102485.88;5013845;28;20100;-76
2022/12/18 04:48:39;;;;;;;27.33;15.70;;;;;;;-5.55;85.78;102478.19;5013889;28;20034;-78
2022/12/18 04:51:05;;;;;;;26.77;16.90;;;;;;;-5.59;86.61;102484.28;5014086;28;20495;-73
2022/12/18 04:53:31;;;;;;;26.08;16.30;;;;;;;-5.62;86.83;102484.31;5014404;28;20095;-74
2022/12/18 04:56:08;;;;;;;27.20;16.03;;;;;;;-5.65;87.29;102476.56;5015114;28;20117;-77
2022/12/18 04:58:35;;;;;;;24.83;15.13;;;;;;;-5.62;87.42;102489.50;5015366;28;20516;-76
2022/12/18 05:01:01;;;;;;;27.10;15.05;;;;;;;-5.62;87.36;102484.31;5014251;28;20042;-74
2022/12/18 05:03:26;;;;;;;26.37;15.97;;;;;;;-5.64;86.76;102486.09;5013974;28;20021;-76
2022/12/18 05:05:52;;;;;;;33.17;19.90;;;;;;;-5.69;87.13;102482.69;5014755;28;20084;-75
2022/12/18 05:08:18;;;;;;;31.13;19.10;;;;;;;-5.71;87.83;102474.06;4997513;28;20025;-72
2022/12/18 05:10:44;;;;;;;33.60;19.17;;;;;;;-5.66;88.41;102487.84;5014408;28;20033;-74
2022/12/18 05:13:10;;;;;;;27.40;17.63;;;;;;;-5.61;88.51;102480.84;5014485;28;20390;-73
2022/12/18 05:15:35;;;;;;;26.47;17.43;;;;;;;-5.52;88.03;102485.91;5017818;28;20049;-73
2022/12/18 05:18:02;;;;;;;28.93;17.80;;;;;;;-5.52;87.85;102483.31;5018695;28;20256;-73
2022/12/18 05:20:28;;;;;;;30.67;16.90;;;;;;;-5.59;87.73;102473.91;5015893;28;20043;-72
2022/12/18 05:22:54;;;;;;;29.30;17.33;;;;;;;-5.59;87.79;102484.28;5014810;28;20026;-73
2022/12/18 05:25:21;;;;;;;29.23;18.35;;;;;;;-5.65;88.21;102476.56;5015122;28;20034;-72
2022/12/18 05:27:46;;;;;;;30.88;18.45;;;;;;;-5.65;87.27;102484.38;5014268;28;20038;-75
2022/12/18 05:30:12;;;;;;;29.23;16.67;;;;;;;-5.75;87.80;102462.00;5013921;28;20438;-71
2022/12/18 05:32:38;;;;;;;27.35;16.95;;;;;;;-5.74;88.31;102469.75;5014596;28;20092;-74
2022/12/18 05:35:05;;;;;;;29.77;17.47;;;;;;;-5.68;88.81;102474.03;5014641;28;20033;-74
2022/12/18 05:37:33;;;;;;;39.50;26.63;;;;;;;-5.91;88.28;102447.50;4997110;28;20061;-77
2022/12/18 05:39:58;;;;;;;37.63;24.55;;;;;;;-5.74;88.42;102479.28;5013663;28;20026;-76
2022/12/18 05:42:24;;;;;;;43.23;29.80;;;;;;;-5.66;88.57;102478.31;5014237;28;20030;-77
2022/12/18 05:44:50;;;;;;;37.73;22.57;;;;;;;-5.63;88.70;102477.41;5014611;28;20083;-77
2022/12/18 05:47:15;;;;;;;44.40;23.63;;;;;;;-5.56;88.34;102494.63;5013525;28;20024;-76
2022/12/18 05:49:41;;;;;;;27.57;17.90;;;;;;;-5.79;88.45;102476.72;5013492;28;20484;-76
2022/12/18 05:52:06;;;;;;;35.47;20.10;;;;;;;-5.86;89.14;102474.22;4996258;28;20038;-74
2022/12/18 05:54:32;;;;;;;30.20;20.60;;;;;;;-5.86;88.70;102474.22;5013861;28;20458;-72
2022/12/18 05:56:58;;;;;;;28.60;17.53;;;;;;;-5.89;89.02;102482.88;5014181;28;20026;-74
2022/12/18 05:59:24;;;;;;;31.42;18.45;;;;;;;-5.94;89.12;102490.75;5013677;28;20041;-73
2022/12/18 06:01:49;;;;;;;24.87;17.63;;;;;;;-5.86;89.39;102489.78;5013382;28;20025;-72
2022/12/18 06:04:15;;;;;;;26.07;17.00;;;;;;;-5.82;89.22;102475.88;5013417;28;20030;-74
2022/12/18 06:06:41;;;;;;;32.10;18.70;;;;;;;-5.87;89.26;102462.97;4996029;28;20104;-73
2022/12/18 06:09:09;;;;;;;30.40;18.63;;;;;;;-5.80;88.22;102475.00;5013481;28;20030;-70
2022/12/18 06:11:36;;;;;;;32.03;18.73;;;;;;;-5.85;87.95;102481.97;5013093;28;20413;-70
2022/12/18 06:14:02;;;;;;;29.35;17.63;;;;;;;-5.95;88.57;102491.63;5012946;28;20385;-74
2022/12/18 06:16:28;;;;;;;29.88;20.40;;;;;;;-5.94;89.23;102493.34;4995707;28;20036;-71
2022/12/18 06:19:03;;;;;;;26.63;18.08;;;;;;;-5.94;88.49;102488.16;5013184;28;20127;-74
2022/12/18 06:21:31;;;;;;;28.92;19.65;;;;;;;-5.91;88.44;102492.47;5013324;28;20117;-73
2022/12/18 06:23:58;;;;;;;25.92;16.88;;;;;;;-6.04;88.10;102485.69;5012996;28;20470;-71
2022/12/18 06:26:24;;;;;;;33.55;18.98;;;;;;;-6.06;87.95;102493.47;5013184;28;20108;-72
2022/12/18 06:28:53;;;;;;;30.50;18.55;;;;;;;-6.27;88.43;102475.53;4995798;28;20071;-72
2022/12/18 06:31:18;;;;;;;26.52;16.98;;;;;;;-6.43;89.03;102484.28;5013553;28;20122;-74
2022/12/18 06:33:44;;;;;;;24.53;16.33;;;;;;;-6.43;89.05;102492.06;5013065;28;20121;-73
2022/12/18 06:36:12;;;;;;;29.40;18.05;;;;;;;-6.47;88.69;102492.97;5012979;28;20406;-72
2022/12/18 06:38:40;;;;;;;28.65;16.73;;;;;;;-6.59;89.62;102479.25;5013220;28;20033;-70
2022/12/18 06:41:14;;;;;;;24.58;16.95;;;;;;;-6.51;90.16;102486.09;5011877;28;20400;-71
2022/12/18 06:43:40;;;;;;;30.83;16.02;;;;;;;-6.60;89.16;102477.53;5012410;28;20037;-71
2022/12/18 06:46:05;;;;;;;29.83;17.13;;;;;;;-6.49;90.17;102486.94;5018707;28;20029;-69
2022/12/18 06:48:31;;;;;;;26.77;16.20;;;;;;;-6.46;89.96;102477.41;5026570;28;20040;-71
2022/12/18 06:50:57;;;;;;;25.37;15.00;;;;;;;-6.65;89.79;102475.81;5045252;28;20025;-73
2022/12/18 06:53:23;;;;;;;28.47;19.47;;;;;;;-6.85;90.18;102465.63;5050647;28;20316;-72
2022/12/18 06:55:49;;;;;;;22.07;14.80;;;;;;;-6.74;91.16;102487.13;5035539;28;20477;-71
2022/12/18 06:58:17;;;;;;;27.35;17.58;;;;;;;-6.74;91.42;102479.34;5034522;28;20037;-73
2022/12/18 07:00:42;;;;;;;27.15;16.35;;;;;;;-6.74;92.28;102476.75;5016457;28;20021;-74
2022/12/18 07:03:08;;;;;;;30.77;17.77;;;;;;;-6.72;91.53;102477.59;5033352;28;20377;-73
2022/12/18 07:05:34;;;;;;;30.00;17.77;;;;;;;-6.78;91.74;102472.47;5033092;28;20389;-72
2022/12/18 07:07:59;;;;;;;30.63;16.87;;;;;;;-6.85;91.35;102488.94;5015253;28;20022;-72
2022/12/18 07:10:25;;;;;;;35.67;19.23;;;;;;;-6.92;91.74;102479.47;5033048;28;20053;-74
2022/12/18 07:12:51;;;;;;;27.48;17.77;;;;;;;-6.92;91.43;102479.47;5036316;28;20026;-72
2022/12/18 07:15:16;;;;;;;26.77;15.97;;;;;;;-6.92;91.60;102487.25;5050505;28;20048;-72
2022/12/18 07:17:42;;;;;;;24.57;15.20;;;;;;;-7.12;90.80;102464.06;5050762;28;20033;-71
2022/12/18 07:20:08;;;;;;;26.80;15.70;;;;;;;-7.12;91.28;102484.75;5047050;28;20103;-74
2022/12/18 07:22:33;;;;;;;22.63;15.43;;;;;;;-7.25;90.58;102476.19;5036194;28;20160;-73
2022/12/18 07:24:59;;;;;;;23.63;15.23;;;;;;;-7.24;91.38;102483.09;5036031;28;20057;-73
2022/12/18 07:27:24;;;;;;;22.70;13.87;;;;;;;-7.51;90.52;102441.84;5020159;28;20037;-75
2022/12/18 07:29:51;;;;;;;23.52;16.30;;;;;;;-7.49;90.79;102486.66;5037407;28;20432;-73
2022/12/18 07:32:17;;;;;;;19.93;13.80;;;;;;;-7.62;91.49;102482.38;5037139;28;20049;-71
2022/12/18 07:34:42;;;;;;;23.70;13.80;;;;;;;-7.79;91.35;102463.50;5037514;28;20091;-71
2022/12/18 07:37:08;;;;;;;25.60;15.70;;;;;;;-7.63;92.40;102496.19;5035791;28;20037;-75
2022/12/18 07:39:33;;;;;;;25.80;16.17;;;;;;;-7.61;92.61;102490.16;5018881;28;20026;-72
2022/12/18 07:44:43;;;;;;;30.25;16.00;;;;;;;-7.46;92.86;102502.19;5001076;28;20093;-73
2022/12/18 07:47:08;;;;;;;40.17;21.83;;;;;;;-7.57;92.03;102470.28;5019803;28;20026;-75
2022/12/18 07:49:34;;;;;;;28.70;18.23;;;;;;;-7.31;92.39;102498.66;4985499;28;20477;-70
2022/12/18 07:51:59;;;;;;;32.50;18.90;;;;;;;-7.19;93.08;102488.25;5018416;28;20104;-72
2022/12/18 07:54:25;;;;;;;34.50;20.67;;;;;;;-7.08;92.62;102476.09;5001720;28;20021;-73
2022/12/18 07:56:51;;;;;;;35.70;19.23;;;;;;;-7.10;91.66;102472.66;5018513;28;20386;-77
2022/12/18 07:59:18;;;;;;;35.17;20.40;;;;;;;-7.05;92.06;102475.22;5018429;28;20385;-74
2022/12/18 08:01:43;;;;;;;34.08;20.77;;;;;;;-7.00;92.29;102470.88;5018707;28;20026;-71
2022/12/18 08:04:09;;;;;;;34.97;19.77;;;;;;;-6.93;91.93;102459.63;4982067;28;20061;-71
2022/12/18 08:06:34;;;;;;;34.00;20.20;;;;;;;-6.94;91.25;102442.34;4997534;28;20118;-70
2022/12/18 08:09:00;;;;;;;37.67;21.03;;;;;;;-6.91;91.99;102442.34;4996965;28;20093;-69
2022/12/18 08:11:27;;;;;;;33.27;18.30;;;;;;;-6.85;91.34;102447.47;4997566;28;20458;-72
2022/12/18 08:13:53;;;;;;;48.72;23.08;;;;;;;-6.77;92.01;102448.28;4999166;28;20074;-73
2022/12/18 08:16:19;;;;;;;47.35;27.08;;;;;;;-6.57;91.15;102454.16;4999110;28;20498;-72
2022/12/18 08:18:45;;;;;;;38.23;23.13;;;;;;;-6.38;91.85;102443.63;4998406;28;20029;-72
2022/12/18 08:21:12;;;;;;;33.83;18.73;;;;;;;-6.34;90.34;102434.97;5000561;28;20458;-70
2022/12/18 08:23:39;;;;;;;34.10;20.80;;;;;;;-6.50;90.11;102410.06;4996698;28;20070;-72
2022/12/18 08:26:05;;;;;;;29.83;18.92;;;;;;;-6.28;89.81;102446.13;4994207;28;20042;-71
2022/12/18 08:28:31;;;;;;;29.77;18.60;;;;;;;-6.22;88.97;102437.44;4994154;28;20041;-69
2022/12/18 08:31:04;;;;;;;31.73;17.30;;;;;;;-6.22;89.16;102453.00;4995663;28;20269;-71
2022/12/18 08:33:30;;;;;;;33.13;19.13;;;;;;;-6.36;88.53;102457.44;4995665;28;20048;-72
2022/12/18 08:35:57;;;;;;;34.93;20.10;;;;;;;-6.30;88.25;102480.72;4977677;28;20133;-72
2022/12/18 08:38:23;;;;;;;34.20;20.08;;;;;;;-6.34;87.70;102477.31;4995546;28;20027;-71
2022/12/18 08:40:48;;;;;;;38.07;20.50;;;;;;;-6.53;88.98;102465.38;4995646;28;20125;-71
2022/12/18 08:45:58;;;;;;;47.55;23.27;;;;;;;-6.50;89.35;102459.31;4995002;28;20366;-72
2022/12/18 08:48:24;;;;;;;42.90;22.33;;;;;;;-6.64;89.26;102454.25;4994919;28;20026;-72
2022/12/18 08:50:59;;;;;;;45.60;26.53;;;;;;;-6.54;90.68;102467.97;4994928;28;20036;-74
2022/12/18 08:53:26;;;;;;;59.45;27.23;;;;;;;-6.48;89.84;102452.38;5000023;28;20032;-74
2022/12/18 08:55:52;;;;;;;46.97;24.85;;;;;;;-6.37;89.53;102460.91;5019158;28;20036;-75
2022/12/18 08:58:19;;;;;;;46.42;26.50;;;;;;;-6.44;89.38;102444.53;4984245;28;20394;-77
2022/12/18 09:00:44;;;;;;;46.38;25.75;;;;;;;-6.41;89.14;102454.88;4996291;28;20038;-75
2022/12/18 09:03:14;;;;;;;45.87;24.97;;;;;;;-6.50;89.52;102439.41;4994570;28;20022;-75
2022/12/18 09:05:40;;;;;;;47.78;24.70;;;;;;;-6.42;89.51;102450.56;4993093;28;20053;-75
2022/12/18 09:08:09;;;;;;;44.80;25.42;;;;;;;-6.38;89.78;102428.94;4994219;28;20089;-74
2022/12/18 09:10:41;;;;;;;46.97;24.87;;;;;;;-6.38;88.94;102433.25;4993473;28;20034;-77
2022/12/18 09:13:07;;;;;;;41.03;25.00;;;;;;;-6.48;89.11;102426.44;4994469;28;20603;-74
2022/12/18 09:15:32;;;;;;;39.00;21.43;;;;;;;-6.50;89.34;102438.56;5027594;28;20034;-76
2022/12/18 09:17:58;;;;;;;36.83;21.03;;;;;;;-6.46;90.22;102429.88;4995812;28;20423;-75
2022/12/18 09:20:24;;;;;;;32.57;18.23;;;;;;;-6.36;90.29;102418.53;4976907;28;20073;-75
2022/12/18 09:22:49;;;;;;;33.53;19.40;;;;;;;-6.23;88.71;102427.94;4994762;28;20026;-74
2022/12/18 09:25:15;;;;;;;30.97;19.47;;;;;;;-6.07;88.86;102429.50;4994612;28;20022;-74
2022/12/18 09:27:42;;;;;;;33.30;18.70;;;;;;;-6.12;86.78;102431.28;4996482;28;20042;-72
2022/12/18 09:33:02;;;;;;;27.75;16.88;;;;;;;-6.40;86.85;102404.75;4996578;28;20038;-77
2022/12/18 09:35:28;;;;;;;50.53;28.23;;;;;;;-6.14;87.12;102437.34;4996696;28;20049;-73
2022/12/18 09:37:54;;;;;;;30.97;15.97;;;;;;;-6.22;87.54;102424.47;5019761;28;20037;-74
2022/12/18 09:40:23;;;;;;;23.63;14.57;;;;;;;-6.05;87.71;102432.94;5015321;28;20054;-74
2022/12/18 09:42:55;;;;;;;27.77;14.97;;;;;;;-5.97;87.02;102428.53;4996180;28;20026;-73
2022/12/18 09:45:22;;;;;;;24.70;16.27;;;;;;;-6.29;85.40;102370.97;4998329;28;20269;-77
2022/12/18 09:47:49;;;;;;;25.65;15.05;;;;;;;-6.04;86.61;102428.63;5001664;28;20478;-76
2022/12/18 09:50:33;;;;;;;30.30;17.95;;;;;;;-5.97;86.44;102425.94;5015052;28;20066;-74
2022/12/18 09:53:06;;;;;;;28.02;16.55;;;;;;;-6.00;86.79;102405.22;4994526;28;20121;-77
2022/12/18 09:55:39;;;;;;;27.90;15.80;;;;;;;-5.87;86.55;102423.19;4994161;28;20120;-76
2022/12/18 09:58:24;;;;;;;30.15;16.75;;;;;;;-5.74;86.40;102411.81;5002214;28;20409;-72
2022/12/18 10:00:52;;;;;;;28.38;17.42;;;;;;;-5.99;85.03;102396.56;5013176;28;20030;-75
2022/12/18 10:03:17;;;;;;;30.15;17.83;;;;;;;-6.00;86.63;102401.78;4995675;28;20470;-73
2022/12/18 10:06:14;;;;;;;27.10;15.43;;;;;;;-6.03;86.47;102402.66;5014427;28;20030;-71
2022/12/18 10:08:39;;;;;;;29.05;15.80;;;;;;;-6.04;87.05;102397.50;4998004;28;20061;-72
2022/12/18 10:11:43;;;;;;;28.53;14.80;;;;;;;-6.12;86.78;102394.97;5014105;28;20084;-73
2022/12/18 10:14:23;;;;;;;29.48;16.77;;;;;;;-6.21;87.05;102389.03;5014553;28;20543;-72
2022/12/18 10:17:19;;;;;;;28.20;14.95;;;;;;;-6.26;87.75;102399.44;4996336;28;20032;-71
2022/12/18 10:19:52;;;;;;;24.15;15.07;;;;;;;-6.26;86.95;102394.28;4993637;28;20036;-73
2022/12/18 10:22:28;;;;;;;38.67;20.40;;;;;;;-6.55;87.33;102368.63;5005598;28;20029;-74
2022/12/18 10:25:02;;;;;;;31.45;15.55;;;;;;;-6.76;88.09;102354.13;4995233;28;20117;-73
2022/12/18 10:27:30;;;;;;;19.35;12.60;;;;;;;-6.31;88.67;102389.13;5010672;28;20029;-72
2022/12/18 10:29:57;;;;;;;24.73;11.52;;;;;;;-6.33;87.18;102395.22;5012801;28;20073;-73
2022/12/18 10:32:26;;;;;;;18.60;11.93;;;;;;;-6.38;87.60;102360.66;5013013;28;20478;-72
2022/12/18 10:34:56;;;;;;;27.38;13.77;;;;;;;-6.01;86.88;102400.91;5012301;28;20136;-75
2022/12/18 10:37:27;;;;;;;24.35;13.30;;;;;;;-6.19;86.76;102338.00;5001373;28;20041;-73
2022/12/18 10:40:11;;;;;;;22.95;12.82;;;;;;;-5.84;85.96;102390.28;4992697;28;20038;-71
2022/12/18 10:42:37;;;;;;;23.02;15.43;;;;;;;-6.11;86.15;102370.75;4992987;28;20415;-71
2022/12/18 10:45:20;;;;;;;28.33;14.13;;;;;;;-5.93;86.59;102396.47;4975217;28;20041;-71
2022/12/18 10:47:49;;;;;;;26.52;12.65;;;;;;;-5.96;85.36;102386.16;4992613;28;20038;-74
2022/12/18 10:50:31;;;;;;;16.63;10.02;;;;;;;-6.10;86.43;102393.22;4993207;28;20080;-72
2022/12/18 10:53:03;;;;;;;20.52;12.70;;;;;;;-6.19;86.99;102385.53;4993051;28;20029;-76
2022/12/18 10:55:38;;;;;;;20.13;11.50;;;;;;;-6.22;86.60;102382.13;5010957;28;20038;-78
2022/12/18 11:01:47;;;;;;;19.58;12.63;;;;;;;-6.48;86.60;102317.59;5012663;28;20080;-73
2022/12/18 11:04:18;;;;;;;17.05;11.02;;;;;;;-6.02;87.07;102380.19;5012183;28;20030;-71
2022/12/18 11:07:02;;;;;;;19.67;11.88;;;;;;;-5.99;86.58;102381.00;5012330;28;20474;-71
2022/12/18 11:09:39;;;;;;;20.35;12.07;;;;;;;-6.01;86.50;102381.91;5012061;28;20067;-72
2022/12/18 11:12:17;;;;;;;20.08;12.52;;;;;;;-5.91;87.39;102383.50;5013159;28;20073;-72
2022/12/18 11:14:47;;;;;;;20.50;10.38;;;;;;;-5.87;85.42;102384.28;5012762;28;20033;-71
2022/12/18 11:17:32;;;;;;;18.55;9.50;;;;;;;-6.06;86.30;102355.16;5012117;28;20080;-73
2022/12/18 11:20:23;;;;;;;20.45;11.38;;;;;;;-5.79;86.39;102378.09;5013112;28;20025;-71
2022/12/18 11:23:02;;;;;;;21.35;12.88;;;;;;;-5.82;86.59;102369.50;4991026;28;20026;-73
2022/12/18 11:25:33;;;;;;;21.23;12.45;;;;;;;-6.01;86.37;102356.81;5018088;28;20478;-76
2022/12/18 11:28:22;;;;;;;20.77;12.07;;;;;;;-6.25;86.75;102310.41;5012320;28;20112;-74
2022/12/18 11:30:49;;;;;;;18.85;11.38;;;;;;;-5.98;86.05;102361.09;5014262;28;20096;-74
2022/12/18 11:33:40;;;;;;;19.35;11.43;;;;;;;-6.26;86.76;102306.97;5017991;28;20041;-76
2022/12/18 11:36:10;;;;;;;19.20;11.20;;;;;;;-5.99;86.99;102357.66;4989208;28;20046;-76